Etusivu
METAR-TAF:

METAR-TAF

Lentoasemat :

Harbin, Kiina

Leveyspiiri: 45-45N, Pituuspiiri: 126-46E, korkeus merenpinnasta: 143 m

Tämänhetkinen sää

Tämä raportti tehtiin 36 minuuttia sitten, kello 17.00 UTC
Tuuli 6 kn lounaasta
Lämpötila 18°C
Kosteus 34%
Ilmanpaine 1016 hPa
Näkyvyys 10 km tai enemmän
ei pilviä alle 1500 m:ssä eikä cumulonimbus-pilviä

METAR: ZYHB 201700Z 22003MPS CAVOK 18/02 Q1016 NOSIG

Aika: 01:36 (17:36 UTC)

Sääennuste

Tämä raportti tehtiin 2 tuntia ja 36 minuuttia sitten, kello 15.00 UTC
Ennuste voimassa 20. päivästä klo 18 UTC - 21. päivään klo 18 UTC
Tuuli 8 kn lounaasta
Näkyvyys: 6000 m
Hajanaisia pilviä 3300 ft:n korkeudessa
Tulossa
20. päivästä klo 23 UTC - 20. päivään klo 24 UTC
Tuuli 19 kn lounaasta puuskistuen 33 kn:hen

TAF: ZYHB 201500Z 2018/2118 22004MPS 6000 SCT033 TX28/2106Z TN15/2021Z BECMG 2023/2024 22010G17MPS

Säähavainnot ja -ennusteet yli 4000 lentoasemalta (METAR- ja TAF-raportit).

Käytössä olevat sääasemat on merkitty karttaan keltaisilla ja punaisilla pisteillä.

Aseta hiiri pisteen päälle nähdäksesi sääaseman nimen.

Klikkaa sitten nähdäksesi säähavainnot ja -ennusteet.

Kartan vaihtaminen: klikkaa mustalla rastilla varustettuja vihreitä pisteitä, niin voit zoomata sisään; viivalla varustettua vihreää pistettä, niin voit zoomata ulos tai vihreitä nuolia, niin pääset viereisille kartoille.


METAR-TAF: